Saint Charles, South Dakota
Current Conditions -  °F | °C
As of 11:53 AM on Friday 24 Oct 2014 (Local Time) from KICR Reporting Station
Clear Clear  
Wind Chill: 66°   Ceiling: Unl
Heat Index: 66°   Visibility: NA
Dew Point: 33°   Wind: 5mph
Humidity: 29%   Direction: 330°NNW
Pressure: 29.96"   Gusts: NA
Location:  43.09°N, 99.1°W
Report Text: KICR 241653Z AUTO 33004KT CLR 19/01 A2996 RMK AO2 SLPNO T01890006 $
Loading
Personal Weather Stations






























Interactive Weather Map
Tropical Storm Tracking
New forecast layout! Learn more

10-Day Weather Forecast

Advertisements
Track Severe Weather on mobile